Time;durP1;ratioP1;P1;durP2;ratioP2;P2;SDS_P1;SDS_P2;PMS_P1;PMS_P2;Temp;Humidity;BMP_temperature;BMP_pressure;BME280_temperature;BME280_humidity;BME280_pressure;Samples;Min_cycle;Max_cycle;Signal;HPM_P1;HPM_P2
2024/01/25 00:01:15;;;;;;;34.20;24.75;;;;;;;3.50;64.44;95151.66;4184117;28;20070;-68
2024/01/25 00:03:17;;;;;;;33.38;23.63;;;;;;;3.57;64.00;95150.31;4189187;28;20060;-67
2024/01/25 00:05:19;;;;;;;33.45;25.25;;;;;;;3.64;63.23;95140.34;4181377;28;20479;-69
2024/01/25 00:07:21;;;;;;;33.33;23.65;;;;;;;3.87;63.48;95125.78;4187196;28;20163;-69
2024/01/25 00:09:23;;;;;;;36.17;25.42;;;;;;;4.04;62.90;95130.63;4176586;28;20136;-68
2024/01/25 00:11:24;;;;;;;32.08;23.67;;;;;;;4.11;62.82;95118.06;4190453;28;20052;-67
2024/01/25 00:13:26;;;;;;;32.90;24.38;;;;;;;4.09;62.90;95109.56;4187681;28;20048;-69
2024/01/25 00:15:28;;;;;;;34.53;24.58;;;;;;;4.09;62.61;95104.38;4187763;28;20072;-68
2024/01/25 00:17:30;;;;;;;35.80;24.90;;;;;;;4.08;62.14;95100.09;4187497;28;20547;-67
2024/01/25 00:19:34;;;;;;;32.55;22.63;;;;;;;4.01;63.45;95076.38;4180276;28;20533;-69
2024/01/25 00:21:42;;;;;;;33.83;24.50;;;;;;;3.95;63.11;95063.03;4207369;28;20074;-70
2024/01/25 00:23:44;;;;;;;34.05;23.88;;;;;;;3.98;63.34;95055.03;4190280;28;20048;-69
2024/01/25 00:25:46;;;;;;;36.42;24.25;;;;;;;4.05;63.63;95033.75;4189486;28;20060;-69
2024/01/25 00:27:48;;;;;;;32.22;23.55;;;;;;;3.99;63.38;95028.19;4187912;28;20169;-66
2024/01/25 00:29:50;;;;;;;34.53;22.92;;;;;;;4.18;63.45;95030.28;4176894;28;20253;-69
2024/01/25 00:31:52;;;;;;;32.70;22.25;;;;;;;4.37;62.48;95027.16;4187676;28;20466;-68
2024/01/25 00:33:54;;;;;;;34.58;22.38;;;;;;;4.43;61.57;95030.13;4188951;28;20596;-68
2024/01/25 00:35:57;;;;;;;29.23;21.10;;;;;;;4.40;61.47;95027.75;4191123;28;20052;-68
2024/01/25 00:38:00;;;;;;;32.33;22.40;;;;;;;4.08;62.23;95041.28;4187097;28;20059;-69
2024/01/25 00:40:03;;;;;;;28.70;21.77;;;;;;;3.97;62.47;95035.25;4184874;28;20051;-69
2024/01/25 00:42:06;;;;;;;33.90;22.43;;;;;;;3.64;63.96;95050.50;4202656;28;20044;-68
2024/01/25 00:44:08;;;;;;;32.30;23.23;;;;;;;3.58;64.31;95044.91;4181289;28;20055;-69
2024/01/25 00:46:10;;;;;;;31.30;21.23;;;;;;;3.59;63.56;95041.38;4184918;28;20453;-67
2024/01/25 00:48:12;;;;;;;30.80;21.40;;;;;;;3.76;62.40;95037.59;4188490;28;20480;-68
2024/01/25 00:50:17;;;;;;;30.98;21.48;;;;;;;3.94;62.77;95032.88;4190047;28;20487;-70
2024/01/25 00:52:20;;;;;;;28.58;20.52;;;;;;;4.15;62.24;95026.13;4189903;28;20056;-68
2024/01/25 00:54:22;;;;;;;28.95;20.38;;;;;;;4.37;61.55;95022.78;4180226;28;20491;-69
2024/01/25 00:56:24;;;;;;;29.25;19.67;;;;;;;4.53;60.55;95034.63;4189640;28;20106;-67
2024/01/25 00:58:27;;;;;;;26.80;19.52;;;;;;;4.21;60.93;95032.63;4183836;28;20051;-68
2024/01/25 01:00:29;;;;;;;30.17;19.98;;;;;;;4.17;60.90;95033.78;4178743;28;20041;-68
2024/01/25 01:02:35;;;;;;;27.10;20.05;;;;;;;4.20;61.56;95036.16;4191403;28;20051;-67
2024/01/25 01:04:38;;;;;;;28.45;20.30;;;;;;;4.31;60.87;95033.63;4194679;28;20266;-67
2024/01/25 01:06:49;;;;;;;27.90;19.75;;;;;;;4.48;60.71;95046.16;4187289;28;21494;-69
2024/01/25 01:08:52;;;;;;;27.77;20.65;;;;;;;4.51;59.75;95055.47;4190965;28;20406;-68
2024/01/25 01:10:54;;;;;;;29.05;20.90;;;;;;;4.42;60.23;95056.16;4184927;28;20123;-68
2024/01/25 01:12:55;;;;;;;27.52;20.35;;;;;;;4.41;60.14;95044.97;4188940;28;20162;-68
2024/01/25 01:14:57;;;;;;;29.10;20.75;;;;;;;4.31;60.83;95044.00;4188718;28;20564;-70
2024/01/25 01:16:59;;;;;;;32.15;20.45;;;;;;;4.19;61.28;95032.72;4190598;28;20517;-69
2024/01/25 01:19:05;;;;;;;29.60;20.27;;;;;;;4.28;61.19;95029.47;4192732;28;20048;-69
2024/01/25 01:21:07;;;;;;;30.95;19.52;;;;;;;4.38;61.15;95023.59;4181547;28;20750;-68
2024/01/25 01:23:09;;;;;;;26.75;17.95;;;;;;;4.48;61.28;94991.69;4191977;28;20454;-69
2024/01/25 01:25:11;;;;;;;27.98;19.15;;;;;;;4.50;61.47;94976.84;4185957;28;20063;-70
2024/01/25 01:27:13;;;;;;;24.17;17.52;;;;;;;4.62;61.61;94974.25;4186576;28;20075;-69
2024/01/25 01:29:14;;;;;;;21.15;15.38;;;;;;;4.72;60.87;94973.44;4183427;28;20060;-69
2024/01/25 01:31:16;;;;;;;20.52;14.80;;;;;;;4.82;59.74;94970.97;4176657;28;20107;-69
2024/01/25 01:33:18;;;;;;;24.55;12.18;;;;;;;4.88;59.72;94980.91;4191221;28;20052;-68
2024/01/25 01:35:20;;;;;;;16.67;10.40;;;;;;;4.96;59.16;94982.06;4192479;28;20098;-68
2024/01/25 01:37:22;;;;;;;15.43;9.35;;;;;;;5.01;58.48;94974.75;4194456;28;20495;-70
2024/01/25 01:39:25;;;;;;;15.55;9.35;;;;;;;5.06;58.09;94965.66;4190800;28;20547;-68
2024/01/25 01:41:27;;;;;;;13.98;9.10;;;;;;;5.18;57.15;94965.66;4189094;28;20465;-68
2024/01/25 01:43:29;;;;;;;14.55;8.57;;;;;;;5.32;56.81;94957.59;4186968;28;20470;-69
2024/01/25 01:45:30;;;;;;;11.98;6.65;;;;;;;5.47;56.98;94965.97;4191404;28;20059;-69
2024/01/25 01:47:33;;;;;;;8.10;5.53;;;;;;;5.66;56.22;94953.16;4191830;28;20214;-66
2024/01/25 01:49:35;;;;;;;8.93;5.45;;;;;;;5.83;56.38;94945.75;4184241;28;20049;-68
2024/01/25 01:51:38;;;;;;;7.03;3.87;;;;;;;6.01;56.26;94941.72;4189015;28;20045;-66
2024/01/25 01:53:40;;;;;;;6.95;3.78;;;;;;;6.20;56.48;94937.63;4184644;28;20269;-67
2024/01/25 01:55:42;;;;;;;5.03;3.00;;;;;;;6.35;56.49;94942.38;4199698;28;20048;-69
2024/01/25 01:57:45;;;;;;;6.60;3.42;;;;;;;6.53;55.54;94939.19;4175928;28;20057;-67
2024/01/25 01:59:48;;;;;;;5.85;2.67;;;;;;;6.67;55.19;94943.25;4183408;28;20400;-67
2024/01/25 02:01:51;;;;;;;4.97;2.58;;;;;;;6.79;54.51;94938.75;4187013;28;20545;-67
2024/01/25 02:03:54;;;;;;;5.38;2.60;;;;;;;6.83;54.21;94934.94;4183240;28;20106;-68
2024/01/25 02:06:02;;;;;;;5.28;2.45;;;;;;;6.94;54.10;94934.84;4180562;28;20243;-68
2024/01/25 02:08:04;;;;;;;5.45;2.50;;;;;;;7.03;53.79;94935.84;4189715;28;20187;-68
2024/01/25 02:10:08;;;;;;;4.50;2.40;;;;;;;7.09;53.94;94932.72;4186786;28;20045;-70
2024/01/25 02:12:10;;;;;;;7.30;2.33;;;;;;;7.13;53.94;94926.28;4184771;28;20056;-69
2024/01/25 02:14:12;;;;;;;5.80;2.50;;;;;;;7.24;53.96;94934.00;4190017;28;20057;-69
2024/01/25 02:16:15;;;;;;;5.32;3.83;;;;;;;7.14;54.60;94928.78;4187970;28;20680;-67
2024/01/25 02:18:17;;;;;;;7.97;5.30;;;;;;;6.66;55.48;94931.16;4201936;28;20089;-66
2024/01/25 02:20:19;;;;;;;9.85;5.80;;;;;;;6.19;56.97;94941.16;4190838;28;20106;-69
2024/01/25 02:22:21;;;;;;;10.02;6.25;;;;;;;6.14;57.27;94938.94;4191981;28;20048;-68
2024/01/25 02:24:23;;;;;;;10.50;6.05;;;;;;;5.86;58.48;94940.34;4185248;28;20164;-67
2024/01/25 02:26:25;;;;;;;12.00;6.10;;;;;;;5.70;59.12;94933.78;4187755;28;20106;-69
2024/01/25 02:28:27;;;;;;;9.75;6.60;;;;;;;5.74;58.94;94948.19;4190687;28;20127;-68
2024/01/25 02:30:29;;;;;;;6.03;4.05;;;;;;;5.55;60.65;94932.41;4202455;28;20071;-69
2024/01/25 02:32:31;;;;;;;6.32;3.25;;;;;;;5.73;60.69;94943.09;4187940;28;20045;-68
2024/01/25 02:34:33;;;;;;;4.65;2.40;;;;;;;5.97;60.31;94929.91;4202382;28;20043;-68
2024/01/25 02:36:34;;;;;;;5.40;3.20;;;;;;;6.15;59.44;94938.81;4182231;28;20055;-69
2024/01/25 02:38:36;;;;;;;6.25;3.83;;;;;;;6.21;58.59;94934.88;4183420;28;20055;-69
2024/01/25 02:40:39;;;;;;;6.80;3.72;;;;;;;5.97;58.82;94947.28;4191891;28;20075;-69
2024/01/25 02:42:40;;;;;;;5.28;3.50;;;;;;;5.58;59.02;94937.34;4187925;28;20055;-70
2024/01/25 02:44:43;;;;;;;6.28;2.80;;;;;;;5.68;59.95;94934.84;4180048;28;20040;-69
2024/01/25 02:46:46;;;;;;;4.55;1.98;;;;;;;5.88;60.36;94920.22;4189762;28;20052;-68
2024/01/25 02:48:48;;;;;;;5.35;2.55;;;;;;;6.06;58.54;94923.94;4184405;28;20044;-69
2024/01/25 02:50:50;;;;;;;4.60;2.88;;;;;;;5.99;58.06;94903.78;4191209;28;20130;-70
2024/01/25 02:52:52;;;;;;;4.20;2.40;;;;;;;5.95;58.37;94909.22;4177433;28;20443;-68
2024/01/25 02:54:54;;;;;;;5.28;2.78;;;;;;;5.76;58.72;94919.44;4187914;28;20045;-69
2024/01/25 02:56:56;;;;;;;4.60;2.75;;;;;;;5.77;59.25;94928.91;4186020;28;20041;-68
2024/01/25 02:58:57;;;;;;;5.03;2.80;;;;;;;5.79;58.91;94923.59;4205208;28;20441;-68
2024/01/25 03:00:59;;;;;;;4.45;2.70;;;;;;;5.84;58.78;94917.03;4186336;28;20052;-68
2024/01/25 03:03:01;;;;;;;4.15;2.75;;;;;;;5.92;59.70;94926.84;4202841;28;20048;-69
2024/01/25 03:05:03;;;;;;;4.93;2.72;;;;;;;6.05;59.90;94914.50;4190157;28;20454;-67
2024/01/25 03:07:05;;;;;;;4.78;1.85;;;;;;;6.30;60.68;94922.88;4191088;28;20465;-68
2024/01/25 03:09:08;;;;;;;3.45;1.73;;;;;;;6.56;60.68;94915.50;4184895;28;20145;-68
2024/01/25 03:11:09;;;;;;;2.33;1.23;;;;;;;6.75;60.62;94915.59;4190715;28;20052;-68
2024/01/25 03:13:11;;;;;;;4.55;1.30;;;;;;;6.97;60.15;94917.19;4190275;28;20616;-68
2024/01/25 03:15:13;;;;;;;3.05;1.13;;;;;;;7.13;60.24;94921.91;4185987;28;20641;-66
2024/01/25 03:17:15;;;;;;;1.65;0.98;;;;;;;7.26;59.92;94919.06;4179904;28;20048;-68
2024/01/25 03:19:18;;;;;;;2.30;0.93;;;;;;;7.39;59.34;94916.19;4190115;28;20051;-68
2024/01/25 03:21:20;;;;;;;2.83;1.27;;;;;;;7.49;59.23;94911.03;4174394;28;20131;-68
2024/01/25 03:23:22;;;;;;;4.97;1.40;;;;;;;7.53;58.73;94912.41;4184504;28;20060;-69
2024/01/25 03:25:24;;;;;;;1.73;0.90;;;;;;;7.59;59.44;94911.84;4179565;28;20127;-68
2024/01/25 03:27:25;;;;;;;1.77;1.00;;;;;;;7.63;59.33;94907.19;4186496;28;20057;-69
2024/01/25 03:29:27;;;;;;;7.60;1.50;;;;;;;7.65;59.07;94905.25;4189239;28;20358;-70
2024/01/25 03:31:29;;;;;;;1.92;1.00;;;;;;;7.64;59.30;94903.63;4183145;28;20044;-68
2024/01/25 03:33:32;;;;;;;1.65;1.00;;;;;;;7.66;58.82;94905.13;4186582;28;20449;-68
2024/01/25 03:35:34;;;;;;;2.70;1.20;;;;;;;7.61;59.52;94909.91;4189120;28;20484;-69
2024/01/25 03:37:36;;;;;;;1.52;0.98;;;;;;;7.58;58.94;94905.00;4179327;28;20049;-68
2024/01/25 03:39:38;;;;;;;3.00;1.23;;;;;;;7.60;58.54;94895.25;4186233;28;20071;-69
2024/01/25 03:41:40;;;;;;;2.42;1.10;;;;;;;7.63;58.83;94884.53;4173357;28;20076;-70
2024/01/25 03:43:41;;;;;;;2.13;1.10;;;;;;;7.57;58.52;94878.09;4188264;28;20041;-66
2024/01/25 03:45:45;;;;;;;5.68;1.35;;;;;;;7.60;58.06;94879.59;4179941;28;20314;-68
2024/01/25 03:47:47;;;;;;;4.47;1.58;;;;;;;7.58;57.74;94876.31;4182510;28;20049;-68
2024/01/25 03:49:49;;;;;;;3.45;1.23;;;;;;;7.44;58.11;94887.94;4182163;28;20049;-69
2024/01/25 03:51:51;;;;;;;3.65;1.35;;;;;;;7.52;57.69;94895.09;4196645;28;20517;-69
2024/01/25 03:53:55;;;;;;;3.10;1.30;;;;;;;7.57;57.99;94879.84;4185277;28;20075;-68
2024/01/25 03:55:57;;;;;;;2.87;1.27;;;;;;;7.58;57.07;94863.28;4185391;28;20044;-69
2024/01/25 03:57:58;;;;;;;4.32;1.20;;;;;;;7.67;57.33;94857.22;4181996;28;20301;-68
2024/01/25 04:00:00;;;;;;;5.13;1.38;;;;;;;7.71;57.20;94845.56;4189812;28;20052;-70
2024/01/25 04:02:02;;;;;;;3.45;1.30;;;;;;;7.76;56.40;94847.75;4183983;28;20077;-67
2024/01/25 04:04:04;;;;;;;2.35;1.20;;;;;;;7.75;56.44;94846.13;4191590;28;20154;-66
2024/01/25 04:06:06;;;;;;;3.70;1.33;;;;;;;7.76;56.17;94852.97;4206053;28;20046;-69
2024/01/25 04:08:09;;;;;;;2.83;1.20;;;;;;;7.69;56.04;94857.91;4183129;28;20044;-67
2024/01/25 04:10:11;;;;;;;3.15;1.33;;;;;;;7.70;56.40;94858.72;4184236;28;20048;-69
2024/01/25 04:12:12;;;;;;;2.33;1.10;;;;;;;7.76;57.14;94863.41;4197087;28;20180;-68
2024/01/25 04:14:15;;;;;;;1.65;1.00;;;;;;;7.83;56.77;94867.13;4188282;28;20048;-68
2024/01/25 04:16:17;;;;;;;2.00;1.10;;;;;;;7.81;56.39;94858.63;4185555;28;20080;-70
2024/01/25 04:18:19;;;;;;;2.42;1.05;;;;;;;7.79;55.81;94863.97;4188049;28;20431;-68
2024/01/25 04:20:21;;;;;;;2.92;1.20;;;;;;;7.90;55.83;94854.34;4183758;28;20087;-70
2024/01/25 04:22:23;;;;;;;2.90;1.33;;;;;;;7.90;55.43;94851.75;4184110;28;20053;-68
2024/01/25 04:24:25;;;;;;;3.70;1.35;;;;;;;7.79;55.74;94848.31;4189213;28;20551;-70
2024/01/25 04:26:27;;;;;;;3.53;1.30;;;;;;;7.87;55.88;94844.19;4177111;28;20053;-67
2024/01/25 04:28:28;;;;;;;4.05;1.60;;;;;;;7.90;55.64;94838.69;4188385;28;20080;-69
2024/01/25 04:30:32;;;;;;;3.08;1.45;;;;;;;7.92;55.44;94844.59;4186589;28;20055;-70
2024/01/25 04:32:34;;;;;;;2.40;1.27;;;;;;;7.95;55.79;94844.31;4185582;28;20065;-67
2024/01/25 04:34:36;;;;;;;2.97;1.20;;;;;;;7.98;55.21;94846.66;4189132;28;20523;-69
2024/01/25 04:36:39;;;;;;;2.15;1.05;;;;;;;7.96;55.03;94852.00;4189975;28;20051;-69
2024/01/25 04:38:40;;;;;;;3.20;1.45;;;;;;;7.98;54.49;94863.13;4185714;28;20075;-68
2024/01/25 04:40:42;;;;;;;3.38;1.45;;;;;;;7.90;54.84;94865.59;4189893;28;20123;-69
2024/01/25 04:42:45;;;;;;;2.92;1.60;;;;;;;7.89;54.80;94865.72;4182616;28;20484;-70
2024/01/25 04:44:47;;;;;;;2.38;1.40;;;;;;;7.80;54.91;94889.06;4181921;28;20114;-69
2024/01/25 04:46:48;;;;;;;5.38;3.15;;;;;;;7.30;55.84;94893.56;4194313;28;20062;-68
2024/01/25 04:48:50;;;;;;;7.32;3.45;;;;;;;6.61;58.35;94902.91;4189486;28;20049;-68
2024/01/25 04:50:53;;;;;;;7.05;3.50;;;;;;;6.52;58.34;94901.09;4194626;28;20076;-69
2024/01/25 04:52:54;;;;;;;6.60;3.45;;;;;;;6.37;58.75;94903.22;4192852;28;20053;-70
2024/01/25 04:54:56;;;;;;;6.45;3.70;;;;;;;6.15;59.56;94902.41;4194408;28;20053;-69
2024/01/25 04:56:58;;;;;;;7.30;3.40;;;;;;;6.16;59.31;94898.00;4192644;28;20481;-69
2024/01/25 04:59:00;;;;;;;6.68;2.95;;;;;;;6.14;59.13;94899.91;4186829;28;20053;-67
2024/01/25 05:01:02;;;;;;;6.25;3.60;;;;;;;6.25;58.68;94899.84;4190916;28;20372;-69
2024/01/25 05:03:04;;;;;;;5.35;3.17;;;;;;;6.38;57.99;94915.25;4187884;28;20325;-71
2024/01/25 05:05:06;;;;;;;5.88;3.30;;;;;;;6.44;57.65;94930.38;4171632;28;20076;-69
2024/01/25 05:07:08;;;;;;;4.35;2.70;;;;;;;6.46;57.32;94918.03;4186433;28;20040;-69
2024/01/25 05:09:13;;;;;;;5.30;3.22;;;;;;;6.43;57.01;94920.91;4188204;28;20087;-68
2024/01/25 05:11:15;;;;;;;5.00;2.60;;;;;;;6.45;56.74;94916.38;4189763;28;20048;-69
2024/01/25 05:13:17;;;;;;;6.43;2.47;;;;;;;6.50;56.92;94922.03;4181700;28;20045;-70
2024/01/25 05:15:19;;;;;;;5.28;2.53;;;;;;;6.64;56.09;94931.28;4204222;28;20083;-69
2024/01/25 05:17:21;;;;;;;4.90;2.90;;;;;;;6.78;55.62;94921.50;4190169;28;20072;-69
2024/01/25 05:19:23;;;;;;;4.18;2.50;;;;;;;6.86;55.44;94952.91;4186719;28;20102;-70
2024/01/25 05:21:25;;;;;;;4.57;2.17;;;;;;;6.94;54.95;94946.09;4191194;28;20407;-69
2024/01/25 05:23:27;;;;;;;3.95;1.50;;;;;;;7.03;54.35;94957.50;4182016;28;20425;-68
2024/01/25 05:25:29;;;;;;;3.20;1.70;;;;;;;7.08;54.64;94962.34;4192633;28;20095;-68
2024/01/25 05:27:31;;;;;;;6.38;2.22;;;;;;;7.14;54.35;94944.41;4189836;28;20057;-69
2024/01/25 05:29:33;;;;;;;4.63;1.70;;;;;;;7.13;54.24;94949.75;4185477;28;20384;-69
2024/01/25 05:31:35;;;;;;;4.55;1.95;;;;;;;7.13;54.43;94960.16;4189282;28;20048;-69
2024/01/25 05:33:37;;;;;;;5.07;1.50;;;;;;;7.17;54.39;94948.53;4182624;28;20048;-69
2024/01/25 05:35:39;;;;;;;6.28;2.28;;;;;;;7.27;54.03;94949.38;4185079;28;20083;-69
2024/01/25 05:37:44;;;;;;;3.92;1.60;;;;;;;7.18;54.04;94969.25;4181742;28;20134;-71
2024/01/25 05:39:45;;;;;;;3.88;1.73;;;;;;;7.23;54.01;94953.22;4188164;28;20400;-71
2024/01/25 05:41:47;;;;;;;3.60;1.48;;;;;;;7.25;53.80;94948.69;4194266;28;20405;-69
2024/01/25 05:43:49;;;;;;;4.00;1.67;;;;;;;7.39;53.15;94944.88;4194015;28;20052;-70
2024/01/25 05:45:51;;;;;;;4.38;1.95;;;;;;;7.53;53.09;94967.16;4191708;28;20100;-69
2024/01/25 05:47:53;;;;;;;5.25;1.88;;;;;;;7.63;52.41;94970.56;4193595;28;20045;-67
2024/01/25 05:49:55;;;;;;;5.82;2.05;;;;;;;7.62;52.66;94957.69;4203715;28;20484;-69
2024/01/25 05:51:57;;;;;;;4.35;2.25;;;;;;;7.46;52.58;94948.59;4194024;28;20056;-69
2024/01/25 05:53:59;;;;;;;4.95;1.98;;;;;;;7.41;53.41;94960.38;4188364;28;20048;-69
2024/01/25 05:56:00;;;;;;;6.55;2.08;;;;;;;7.45;53.30;94972.19;4190657;28;20047;-70
2024/01/25 05:58:02;;;;;;;3.97;1.55;;;;;;;7.35;53.62;94967.75;4175479;28;20049;-69
2024/01/25 06:00:05;;;;;;;3.53;1.80;;;;;;;7.36;54.03;94985.06;4181231;28;20051;-69
2024/01/25 06:02:08;;;;;;;3.92;1.70;;;;;;;7.37;53.81;94996.31;4191386;28;20298;-70
2024/01/25 06:04:10;;;;;;;5.95;2.15;;;;;;;7.33;53.61;94990.53;4189971;28;20052;-69
2024/01/25 06:06:12;;;;;;;4.03;1.83;;;;;;;7.32;53.66;94981.06;4189775;28;20052;-70
2024/01/25 06:08:14;;;;;;;4.85;1.80;;;;;;;7.27;54.00;94975.44;4191834;28;20540;-68
2024/01/25 06:10:16;;;;;;;6.85;2.28;;;;;;;7.23;54.46;94981.03;4185106;28;20541;-68
2024/01/25 06:12:18;;;;;;;4.38;2.10;;;;;;;7.28;54.35;94989.28;4183523;28;20052;-69
2024/01/25 06:14:20;;;;;;;6.82;2.13;;;;;;;7.39;53.76;94990.00;4206608;28;20127;-69
2024/01/25 06:16:22;;;;;;;5.47;2.25;;;;;;;7.37;53.82;94989.31;4189859;28;20072;-71
2024/01/25 06:18:24;;;;;;;6.93;2.60;;;;;;;7.42;53.66;95003.72;4181759;28;20122;-70
2024/01/25 06:20:26;;;;;;;7.10;2.13;;;;;;;7.41;54.02;95002.91;4188554;28;20053;-70
2024/01/25 06:22:28;;;;;;;5.18;2.20;;;;;;;7.42;54.13;94982.88;4182133;28;20321;-70
2024/01/25 06:24:30;;;;;;;6.82;2.17;;;;;;;7.43;54.15;94994.97;4184940;28;20063;-70
2024/01/25 06:26:32;;;;;;;7.43;2.55;;;;;;;7.41;53.86;95010.72;4186086;28;20076;-71
2024/01/25 06:28:34;;;;;;;6.00;2.63;;;;;;;7.36;54.50;94994.66;4191298;28;20086;-69
2024/01/25 06:30:36;;;;;;;7.57;2.60;;;;;;;7.38;53.94;94993.56;4180922;28;20049;-69
2024/01/25 06:32:38;;;;;;;6.28;2.30;;;;;;;7.41;54.11;94991.66;4188068;28;20122;-69
2024/01/25 06:34:40;;;;;;;4.47;2.20;;;;;;;7.42;54.44;95001.97;4202461;28;20472;-70
2024/01/25 06:36:42;;;;;;;5.28;2.70;;;;;;;7.44;54.08;95007.03;4187806;28;20488;-70
2024/01/25 06:38:44;;;;;;;6.65;2.30;;;;;;;7.44;53.89;95002.63;4192965;28;20468;-69
2024/01/25 06:40:46;;;;;;;5.00;2.42;;;;;;;7.37;54.16;95010.16;4185775;28;20122;-69
2024/01/25 06:42:47;;;;;;;7.15;2.47;;;;;;;7.46;54.43;95005.94;4178976;28;20081;-69
2024/01/25 06:44:50;;;;;;;7.55;2.40;;;;;;;7.43;54.63;95010.59;4176670;28;20067;-71
2024/01/25 06:46:52;;;;;;;4.75;2.10;;;;;;;7.38;54.31;95021.44;4183368;28;20122;-70
2024/01/25 06:48:54;;;;;;;7.10;2.47;;;;;;;7.46;54.05;95005.13;4183001;28;20442;-69
2024/01/25 06:50:56;;;;;;;5.43;2.40;;;;;;;7.53;54.25;95019.28;4177795;28;20399;-70
2024/01/25 06:52:58;;;;;;;11.52;7.30;;;;;;;7.03;55.20;95014.81;4177823;28;20381;-69
2024/01/25 06:55:00;;;;;;;11.40;6.68;;;;;;;6.85;55.82;95011.97;4189332;28;20048;-69
2024/01/25 06:57:02;;;;;;;8.35;4.57;;;;;;;6.84;56.19;95022.53;4186668;28;20056;-69
2024/01/25 06:59:04;;;;;;;10.15;5.88;;;;;;;6.90;56.17;95025.44;4198674;28;20239;-69
2024/01/25 07:01:10;;;;;;;8.80;3.50;;;;;;;7.11;55.43;95029.81;4185688;28;20587;-70
2024/01/25 07:03:14;;;;;;;6.95;2.78;;;;;;;7.15;55.30;95028.59;4175324;28;20053;-71
2024/01/25 07:05:16;;;;;;;;;;;;;;;7.18;54.98;95028.31;4182544;28;20045;-70
2024/01/25 07:07:19;;;;;;;7.97;2.78;;;;;;;7.29;54.70;95019.59;4192130;28;20423;-70
2024/01/25 07:09:21;;;;;;;7.32;2.78;;;;;;;7.39;54.83;95025.66;4208852;28;20044;-70
2024/01/25 07:11:23;;;;;;;7.85;3.20;;;;;;;7.39;54.37;95021.28;4184241;28;20063;-70
2024/01/25 07:13:25;;;;;;;10.30;2.80;;;;;;;7.48;54.30;95005.81;4184295;28;20070;-71
2024/01/25 07:15:27;;;;;;;7.35;2.70;;;;;;;7.44;53.71;95002.63;4185861;28;20048;-74
2024/01/25 07:17:29;;;;;;;6.63;2.50;;;;;;;7.44;54.27;94978.34;4184694;28;20053;-70
2024/01/25 07:19:32;;;;;;;7.47;2.63;;;;;;;7.39;54.48;94992.59;4177593;28;20134;-70
2024/01/25 07:21:33;;;;;;;9.00;2.95;;;;;;;7.47;53.96;94985.94;4189590;28;20135;-69
2024/01/25 07:23:35;;;;;;;7.10;3.08;;;;;;;7.46;54.54;94986.88;4189334;28;20114;-70
2024/01/25 07:25:37;;;;;;;7.68;2.70;;;;;;;7.42;54.55;94988.94;4184173;28;20059;-70
2024/01/25 07:27:39;;;;;;;6.25;2.60;;;;;;;7.28;53.97;94984.91;4191484;28;20479;-70
2024/01/25 07:29:44;;;;;;;7.47;3.75;;;;;;;7.35;54.08;94988.59;4192397;28;20050;-69
2024/01/25 07:31:46;;;;;;;7.28;2.90;;;;;;;7.35;53.61;94974.75;4189218;28;20037;-70
2024/01/25 07:33:48;;;;;;;5.50;2.60;;;;;;;7.32;54.03;95001.09;4183309;28;20057;-70
2024/01/25 07:35:50;;;;;;;9.13;2.72;;;;;;;7.15;54.27;94992.13;4181523;28;20053;-69
2024/01/25 07:37:51;;;;;;;6.97;2.90;;;;;;;7.32;54.13;95003.72;4188858;28;20155;-70
2024/01/25 07:39:53;;;;;;;7.75;2.90;;;;;;;7.34;54.12;94989.59;4190790;28;20059;-70
2024/01/25 07:41:55;;;;;;;7.03;2.67;;;;;;;7.52;54.01;94988.94;4192730;28;20051;-69
2024/01/25 07:43:57;;;;;;;7.55;3.25;;;;;;;7.51;53.12;94995.13;4190580;28;20487;-69
2024/01/25 07:45:59;;;;;;;7.13;3.28;;;;;;;7.50;53.80;95002.09;4180759;28;20133;-71
2024/01/25 07:48:01;;;;;;;6.63;2.75;;;;;;;7.56;53.08;95006.78;4186817;28;20084;-70
2024/01/25 07:50:16;;;;;;;5.68;2.42;;;;;;;7.59;52.92;95006.53;4186584;28;20059;-69
2024/01/25 07:52:19;;;;;;;9.43;2.83;;;;;;;7.57;53.16;95010.22;4191060;28;20451;-68
2024/01/25 07:54:21;;;;;;;6.85;3.03;;;;;;;7.62;53.04;95015.88;4190476;28;20079;-71
2024/01/25 07:56:23;;;;;;;7.25;2.92;;;;;;;7.73;52.70;95007.13;4182856;28;20056;-71
2024/01/25 07:58:25;;;;;;;11.20;2.60;;;;;;;7.68;52.64;95036.22;4181987;28;20276;-70
2024/01/25 08:00:27;;;;;;;7.78;2.47;;;;;;;7.69;52.27;95026.59;4188723;28;20095;-70
2024/01/25 08:02:29;;;;;;;11.63;3.47;;;;;;;7.75;52.51;95026.88;4189573;28;20040;-71
2024/01/25 08:04:31;;;;;;;6.72;3.13;;;;;;;7.73;52.55;95047.06;4191402;28;20519;-69
2024/01/25 08:06:33;;;;;;;7.93;2.95;;;;;;;7.57;52.56;95023.25;4178886;28;20063;-70
2024/01/25 08:08:35;;;;;;;6.47;2.95;;;;;;;7.61;52.67;95040.28;4192379;28;20044;-70
2024/01/25 08:10:36;;;;;;;7.70;3.08;;;;;;;7.72;52.55;95031.53;4185253;28;20091;-71
2024/01/25 08:12:39;;;;;;;8.02;3.28;;;;;;;7.80;52.48;95019.47;4187858;28;20064;-71
2024/01/25 08:14:49;;;;;;;6.63;2.83;;;;;;;7.86;52.29;95025.13;4187389;28;20419;-71
2024/01/25 08:16:51;;;;;;;10.90;4.55;;;;;;;7.87;51.55;95025.00;4187196;28;20487;-70
2024/01/25 08:18:53;;;;;;;8.27;3.17;;;;;;;7.88;51.87;95024.03;4189882;28;20067;-69
2024/01/25 08:20:56;;;;;;;7.07;2.60;;;;;;;7.86;51.64;95028.56;4189844;28;20134;-71
2024/01/25 08:22:58;;;;;;;7.25;3.10;;;;;;;7.76;51.58;95018.09;4188857;28;20038;-70
2024/01/25 08:25:00;;;;;;;10.00;3.28;;;;;;;7.70;51.29;95021.25;4183951;28;20059;-71
2024/01/25 08:27:02;;;;;;;9.30;2.88;;;;;;;7.71;51.27;95016.84;4190141;28;20049;-70
2024/01/25 08:29:04;;;;;;;6.93;2.78;;;;;;;7.69;51.68;95013.56;4189745;28;20056;-71
2024/01/25 08:31:23;;;;;;;8.35;2.88;;;;;;;7.71;51.42;95004.63;4192251;28;20047;-71
2024/01/25 08:33:25;;;;;;;10.48;2.85;;;;;;;7.72;51.09;95001.09;4188728;28;20059;-70
2024/01/25 08:35:27;;;;;;;7.85;2.92;;;;;;;7.71;51.21;95003.81;4194487;28;20446;-71
2024/01/25 08:37:29;;;;;;;8.90;3.25;;;;;;;7.76;51.17;95010.25;4184133;28;20060;-70
2024/01/25 08:39:31;;;;;;;7.07;2.60;;;;;;;7.79;51.29;95012.63;4191335;28;20048;-70
2024/01/25 08:41:33;;;;;;;8.80;2.60;;;;;;;7.80;50.82;95019.47;4189565;28;20091;-70
2024/01/25 08:43:35;;;;;;;8.90;3.15;;;;;;;7.93;50.55;95008.78;4192496;28;20085;-70
2024/01/25 08:45:38;;;;;;;8.52;2.55;;;;;;;7.91;50.80;95023.75;4191727;28;20048;-71
2024/01/25 08:47:39;;;;;;;9.20;2.80;;;;;;;7.92;51.08;95022.00;4188909;28;20106;-70
2024/01/25 08:49:42;;;;;;;10.18;3.50;;;;;;;7.79;51.28;95035.28;4195001;28;20044;-72
2024/01/25 08:51:44;;;;;;;7.45;3.20;;;;;;;7.88;51.06;95020.59;4188733;28;20049;-71
2024/01/25 08:53:46;;;;;;;8.75;3.45;;;;;;;7.92;51.60;95022.00;4192636;28;20138;-71
2024/01/25 08:55:48;;;;;;;6.63;3.03;;;;;;;7.92;51.27;95038.47;4191646;28;20047;-71
2024/01/25 08:57:50;;;;;;;6.35;2.90;;;;;;;7.98;50.73;95029.28;4189180;28;20053;-71
2024/01/25 08:59:54;;;;;;;5.85;2.70;;;;;;;7.79;51.56;95038.69;4184377;28;20105;-70
2024/01/25 09:01:56;;;;;;;7.57;3.03;;;;;;;7.84;50.88;95040.09;4192087;28;20128;-67
2024/01/25 09:04:02;;;;;;;7.05;2.92;;;;;;;7.94;51.00;95030.50;4193449;28;20052;-69
2024/01/25 09:06:05;;;;;;;8.63;2.80;;;;;;;8.02;50.54;95037.63;4184836;28;20051;-72
2024/01/25 09:08:09;;;;;;;8.52;3.50;;;;;;;8.05;50.82;95050.44;4209264;28;20059;-70
2024/01/25 09:10:11;;;;;;;9.10;3.25;;;;;;;8.11;51.14;95042.88;4198549;28;20530;-70
2024/01/25 09:12:14;;;;;;;7.75;3.60;;;;;;;8.20;51.08;95030.81;4191353;28;20045;-69
2024/01/25 09:14:16;;;;;;;10.57;3.47;;;;;;;8.28;50.69;95032.72;4183923;28;20553;-71
2024/01/25 09:16:17;;;;;;;6.85;3.33;;;;;;;8.29;50.71;95043.03;4182585;28;20052;-70
2024/01/25 09:18:19;;;;;;;14.70;3.97;;;;;;;8.27;51.07;95036.31;4181720;28;20048;-70
2024/01/25 09:20:21;;;;;;;9.98;3.58;;;;;;;8.35;50.75;95039.06;4195271;28;20075;-70
2024/01/25 09:22:23;;;;;;;11.73;5.05;;;;;;;8.28;50.46;95037.94;4185341;28;20395;-70
2024/01/25 09:24:25;;;;;;;11.75;4.25;;;;;;;8.33;50.79;95027.94;4189528;28;20048;-70
2024/01/25 09:26:27;;;;;;;13.70;6.00;;;;;;;8.38;50.50;95036.97;4182861;28;20051;-68
2024/01/25 09:28:29;;;;;;;11.00;4.75;;;;;;;8.36;51.34;95025.84;4185358;28;20439;-70
2024/01/25 09:30:31;;;;;;;16.25;5.63;;;;;;;8.22;50.68;95021.06;4185785;28;20548;-70
2024/01/25 09:32:34;;;;;;;11.18;4.63;;;;;;;8.32;50.59;95023.66;4193541;28;20136;-70
2024/01/25 09:34:38;;;;;;;11.93;5.03;;;;;;;8.33;50.59;95023.53;4181054;28;20128;-71
2024/01/25 09:36:42;;;;;;;11.38;4.80;;;;;;;8.31;50.54;95020.22;4187538;28;20067;-70
2024/01/25 09:38:44;;;;;;;13.90;6.20;;;;;;;8.40;50.98;95026.41;4191909;28;20344;-71
2024/01/25 09:40:46;;;;;;;14.10;5.55;;;;;;;8.38;51.12;95017.88;4189169;28;20052;-70